createdAt,value
2019-02-20T00:00:08.059Z,-1.72
2019-02-20T00:02:34.802Z,-1.71
2019-02-20T00:05:01.594Z,-1.76
2019-02-20T00:07:28.319Z,-1.79
2019-02-20T00:09:55.054Z,-1.84
2019-02-20T00:12:21.823Z,-1.85
2019-02-20T00:14:48.591Z,-1.86
2019-02-20T00:17:15.310Z,-1.85
2019-02-20T00:19:42.117Z,-1.90
2019-02-20T00:22:08.872Z,-1.90
2019-02-20T00:24:35.648Z,-1.88
2019-02-20T00:27:02.366Z,-1.84
2019-02-20T00:29:29.086Z,-1.79
2019-02-20T00:31:55.872Z,-1.82
2019-02-20T00:34:22.607Z,-1.81
2019-02-20T00:36:49.354Z,-1.78
2019-02-20T00:39:19.743Z,-1.74
2019-02-20T00:41:46.466Z,-1.64
2019-02-20T00:44:13.219Z,-1.58
2019-02-20T00:46:39.983Z,-1.55
2019-02-20T00:49:06.699Z,-1.55
2019-02-20T00:51:33.467Z,-1.65
2019-02-20T00:54:00.235Z,-1.69
2019-02-20T00:56:26.990Z,-1.74
2019-02-20T00:58:53.713Z,-1.90
2019-02-20T01:01:20.514Z,-1.94
2019-02-20T01:03:47.250Z,-1.97
2019-02-20T01:06:14.039Z,-2.01
2019-02-20T01:08:40.816Z,-2.09
2019-02-20T01:11:07.519Z,-2.07
2019-02-20T01:13:34.308Z,-2.07
2019-02-20T01:16:01.024Z,-2.09
2019-02-20T01:18:27.764Z,-2.08
2019-02-20T01:20:54.518Z,-2.14
2019-02-20T01:23:21.261Z,-2.18
2019-02-20T01:25:48.042Z,-2.20
2019-02-20T01:28:14.748Z,-2.25
2019-02-20T01:30:41.477Z,-2.22
2019-02-20T01:33:08.273Z,-2.24
2019-02-20T01:35:34.996Z,-2.21
2019-02-20T01:38:01.711Z,-2.25
2019-02-20T01:40:28.591Z,-2.23
2019-02-20T01:42:55.354Z,-2.24
2019-02-20T01:45:22.072Z,-2.28
2019-02-20T01:47:48.882Z,-2.34
2019-02-20T01:50:15.641Z,-2.33
2019-02-20T01:52:42.335Z,-2.34
2019-02-20T01:55:09.088Z,-2.30
2019-02-20T01:57:35.812Z,-2.34
2019-02-20T02:00:09.399Z,-2.37
2019-02-20T02:02:36.151Z,-2.37
2019-02-20T02:05:04.409Z,-2.46
2019-02-20T02:07:31.209Z,-2.47
2019-02-20T02:09:57.939Z,-2.48
2019-02-20T02:12:24.663Z,-2.50
2019-02-20T02:14:51.439Z,-2.52
2019-02-20T02:17:18.191Z,-2.57
2019-02-20T02:19:44.974Z,-2.61
2019-02-20T02:22:11.697Z,-2.59
2019-02-20T02:24:38.447Z,-2.61
2019-02-20T02:27:05.260Z,-2.58
2019-02-20T02:29:32.017Z,-2.51
2019-02-20T02:31:58.733Z,-2.51
2019-02-20T02:34:25.510Z,-2.52
2019-02-20T02:36:52.259Z,-2.51
2019-02-20T02:39:18.998Z,-2.54
2019-02-20T02:41:45.820Z,-2.60
2019-02-20T02:44:12.567Z,-2.64
2019-02-20T02:46:39.305Z,-2.63
2019-02-20T02:49:06.067Z,-2.66
2019-02-20T02:51:32.804Z,-2.67
2019-02-20T02:53:59.591Z,-2.62
2019-02-20T02:56:26.324Z,-2.61
2019-02-20T02:58:53.074Z,-2.59
2019-02-20T03:01:19.857Z,-2.64
2019-02-20T03:03:46.631Z,-2.69
2019-02-20T03:06:13.381Z,-2.73
2019-02-20T03:08:40.196Z,-2.75
2019-02-20T03:11:06.913Z,-2.74
2019-02-20T03:13:33.684Z,-2.79
2019-02-20T03:16:00.471Z,-2.75
2019-02-20T03:18:27.197Z,-2.71
2019-02-20T03:20:53.929Z,-2.72
2019-02-20T03:23:20.700Z,-2.72
2019-02-20T03:25:47.423Z,-2.71
2019-02-20T03:28:14.162Z,-2.72
2019-02-20T03:30:40.969Z,-2.72
2019-02-20T03:33:07.665Z,-2.75
2019-02-20T03:35:34.422Z,-2.74
2019-02-20T03:38:01.183Z,-2.71
2019-02-20T03:40:27.943Z,-2.71
2019-02-20T03:42:54.759Z,-2.79
2019-02-20T03:45:21.520Z,-2.83
2019-02-20T03:47:48.254Z,-2.91
2019-02-20T03:50:15.011Z,-2.94
2019-02-20T03:52:41.754Z,-3.00
2019-02-20T03:55:08.484Z,-2.99
2019-02-20T03:57:35.282Z,-2.99
2019-02-20T04:00:04.021Z,-3.03
2019-02-20T04:02:30.723Z,-3.00
2019-02-20T04:04:57.509Z,-3.03
2019-02-20T04:07:24.247Z,-3.07
2019-02-20T04:09:51.004Z,-3.06
2019-02-20T04:12:17.713Z,-3.09
2019-02-20T04:14:44.471Z,-3.13
2019-02-20T04:17:11.276Z,-3.15
2019-02-20T04:19:37.988Z,-3.20
2019-02-20T04:22:04.743Z,-3.27
2019-02-20T04:24:31.488Z,-3.21
2019-02-20T04:26:58.213Z,-3.17
2019-02-20T04:29:25.026Z,-3.23
2019-02-20T04:31:51.757Z,-3.24
2019-02-20T04:34:18.516Z,-3.29
2019-02-20T04:36:45.297Z,-3.26
2019-02-20T04:39:12.035Z,-3.27
2019-02-20T04:41:38.763Z,-3.30
2019-02-20T04:44:05.614Z,-3.29
2019-02-20T04:46:32.368Z,-3.26
2019-02-20T04:48:59.093Z,-3.21
2019-02-20T04:51:25.896Z,-3.15
2019-02-20T04:53:52.621Z,-3.15
2019-02-20T04:56:19.367Z,-3.20
2019-02-20T04:58:50.457Z,-3.21
2019-02-20T05:01:17.189Z,-3.23
2019-02-20T05:03:43.958Z,-3.24
2019-02-20T05:06:10.688Z,-3.21
2019-02-20T05:08:46.430Z,-3.23
2019-02-20T05:11:13.194Z,-3.21
2019-02-20T05:13:39.918Z,-3.23
2019-02-20T05:16:06.745Z,-3.24
2019-02-20T05:18:33.507Z,-3.22
2019-02-20T05:21:00.188Z,-3.21
2019-02-20T05:23:26.956Z,-3.25
2019-02-20T05:25:53.676Z,-3.26
2019-02-20T05:28:20.389Z,-3.22
2019-02-20T05:30:47.161Z,-3.25
2019-02-20T05:33:13.896Z,-3.28
2019-02-20T05:35:40.688Z,-3.28
2019-02-20T05:38:07.479Z,-3.32
2019-02-20T05:40:34.228Z,-3.31
2019-02-20T05:43:00.979Z,-3.26
2019-02-20T05:45:27.779Z,-3.28
2019-02-20T05:47:54.515Z,-3.33
2019-02-20T05:50:21.238Z,-3.39
2019-02-20T05:52:48.015Z,-3.37
2019-02-20T05:55:14.769Z,-3.36
2019-02-20T05:57:44.557Z,-3.38
2019-02-20T06:00:12.375Z,-3.40
2019-02-20T06:02:39.207Z,-3.43
2019-02-20T06:05:06.483Z,-3.49
2019-02-20T06:07:33.212Z,-3.44
2019-02-20T06:09:59.976Z,-3.45
2019-02-20T06:12:26.786Z,-3.47
2019-02-20T06:14:53.515Z,-3.43
2019-02-20T06:17:20.295Z,-3.44
2019-02-20T06:19:47.028Z,-3.38
2019-02-20T06:22:13.752Z,-3.47
2019-02-20T06:24:44.072Z,-3.44
2019-02-20T06:27:09.092Z,-3.42
2019-02-20T06:29:35.862Z,-3.45
2019-02-20T06:32:02.602Z,-3.45
2019-02-20T06:34:29.394Z,-3.39
2019-02-20T06:36:56.159Z,-3.37
2019-02-20T06:39:23.035Z,-3.35
2019-02-20T06:41:49.761Z,-3.35
2019-02-20T06:44:16.566Z,-3.38
2019-02-20T06:46:43.344Z,-3.32
2019-02-20T06:49:10.072Z,-3.28
2019-02-20T06:51:36.799Z,-3.29
2019-02-20T06:54:03.887Z,-3.24
2019-02-20T06:56:30.619Z,-3.25
2019-02-20T06:58:57.427Z,-3.18
2019-02-20T07:01:24.153Z,-3.11
2019-02-20T07:03:50.901Z,-3.04
2019-02-20T07:06:32.111Z,-3.01
2019-02-20T07:09:37.777Z,-3.02
2019-02-20T07:12:32.723Z,-2.99
2019-02-20T07:15:10.637Z,-3.01
2019-02-20T07:18:14.734Z,-2.92
2019-02-20T07:21:01.755Z,-2.83
2019-02-20T07:23:46.132Z,-2.77
2019-02-20T07:26:29.960Z,-2.70
2019-02-20T07:29:25.041Z,-2.63
2019-02-20T07:31:51.817Z,-2.54
2019-02-20T07:34:18.548Z,-2.50
2019-02-20T07:36:45.321Z,-2.38
2019-02-20T07:39:12.398Z,-2.26
2019-02-20T07:41:39.150Z,-2.21
2019-02-20T07:44:05.911Z,-2.13
2019-02-20T07:46:32.713Z,-2.04
2019-02-20T07:48:59.506Z,-1.99
2019-02-20T07:51:26.251Z,-1.94
2019-02-20T07:53:53.028Z,-1.86
2019-02-20T07:56:19.790Z,-1.77
2019-02-20T07:58:46.527Z,-1.68
2019-02-20T08:01:13.724Z,-1.66
2019-02-20T08:03:40.470Z,-1.59
2019-02-20T08:06:07.234Z,-1.52
2019-02-20T08:08:34.023Z,-1.39
2019-02-20T08:11:00.740Z,-1.26
2019-02-20T08:13:27.507Z,-1.14
2019-02-20T08:15:54.234Z,-1.07
2019-02-20T08:18:20.968Z,-1.01
2019-02-20T08:20:47.765Z,-0.91
2019-02-20T08:23:14.543Z,-0.80
2019-02-20T08:25:41.261Z,-0.68
2019-02-20T08:28:08.073Z,-0.59
2019-02-20T08:30:34.818Z,-0.49
2019-02-20T08:33:01.616Z,-0.37
2019-02-20T08:35:28.401Z,-0.22
2019-02-20T08:37:55.106Z,-0.15
2019-02-20T08:40:21.893Z,-0.11
2019-02-20T08:42:48.630Z,0.01
2019-02-20T08:45:15.338Z,0.12
2019-02-20T08:47:42.178Z,0.22
2019-02-20T08:50:11.896Z,0.39
2019-02-20T08:52:38.627Z,0.52
2019-02-20T08:55:08.416Z,0.67
2019-02-20T08:57:35.174Z,0.79
2019-02-20T09:00:12.258Z,0.90
2019-02-20T09:02:39.005Z,1.01
2019-02-20T09:05:08.920Z,1.09
2019-02-20T09:07:35.708Z,1.18
2019-02-20T09:10:06.235Z,1.27
2019-02-20T09:12:33.076Z,1.31
2019-02-20T09:14:59.844Z,1.40
2019-02-20T09:17:26.616Z,1.48
2019-02-20T09:19:53.345Z,1.57
2019-02-20T09:22:20.134Z,1.67
2019-02-20T09:24:47.007Z,1.77
2019-02-20T09:27:13.753Z,1.84
2019-02-20T09:29:40.516Z,1.90
2019-02-20T09:32:07.269Z,1.98
2019-02-20T09:34:34.043Z,2.12
2019-02-20T09:37:00.779Z,2.18
2019-02-20T09:39:35.651Z,2.28
2019-02-20T09:42:04.370Z,2.35
2019-02-20T09:44:36.033Z,2.41
2019-02-20T09:47:02.835Z,2.51
2019-02-20T09:49:29.617Z,2.59
2019-02-20T09:51:56.357Z,2.69
2019-02-20T09:54:23.141Z,2.76
2019-02-20T09:56:49.993Z,2.82
2019-02-20T09:59:16.771Z,2.87
2019-02-20T10:01:43.507Z,2.92
2019-02-20T10:04:10.224Z,2.98
2019-02-20T10:06:37.030Z,3.06
2019-02-20T10:09:04.572Z,3.13
2019-02-20T10:11:31.349Z,3.19
2019-02-20T10:13:58.219Z,3.27
2019-02-20T10:16:24.932Z,3.36
2019-02-20T10:18:51.701Z,3.45
2019-02-20T10:21:18.484Z,3.54
2019-02-20T10:23:45.345Z,3.68
2019-02-20T10:26:12.152Z,3.78
2019-02-20T10:28:38.885Z,3.90
2019-02-20T10:31:05.593Z,4.04
2019-02-20T10:33:32.376Z,4.12
2019-02-20T10:35:59.098Z,4.24
2019-02-20T10:38:25.853Z,4.32
2019-02-20T10:40:52.639Z,4.41
2019-02-20T10:43:19.490Z,4.48
2019-02-20T10:45:46.215Z,4.52
2019-02-20T10:48:13.114Z,4.56
2019-02-20T10:50:39.919Z,4.66
2019-02-20T10:53:06.713Z,4.79
2019-02-20T10:55:33.470Z,4.93
2019-02-20T10:58:00.223Z,5.08
2019-02-20T11:00:27.030Z,5.28
2019-02-20T11:02:53.771Z,5.41
2019-02-20T11:05:20.670Z,5.53
2019-02-20T11:07:47.470Z,5.64
2019-02-20T11:10:16.082Z,5.73
2019-02-20T11:12:42.902Z,5.82
2019-02-20T11:15:09.697Z,5.89
2019-02-20T11:17:37.261Z,5.92
2019-02-20T11:20:08.602Z,5.98
2019-02-20T11:22:35.366Z,6.02
2019-02-20T11:25:02.434Z,6.05
2019-02-20T11:27:29.201Z,6.13
2019-02-20T11:29:55.928Z,6.19
2019-02-20T11:32:22.717Z,6.20
2019-02-20T11:34:49.439Z,6.22
2019-02-20T11:37:16.196Z,6.26
2019-02-20T11:39:42.955Z,6.31
2019-02-20T11:42:09.691Z,6.38
2019-02-20T11:44:36.443Z,6.46
2019-02-20T11:47:03.573Z,6.59
2019-02-20T11:49:30.256Z,6.85
2019-02-20T11:51:57.024Z,7.09
2019-02-20T11:54:23.802Z,7.32
2019-02-20T11:56:50.563Z,7.63
2019-02-20T11:59:17.368Z,8.00
2019-02-20T12:01:44.128Z,8.40
2019-02-20T12:04:10.875Z,8.85
2019-02-20T12:06:37.654Z,9.13
2019-02-20T12:09:04.687Z,9.49
2019-02-20T12:11:31.428Z,9.80
2019-02-20T12:13:58.231Z,10.19
2019-02-20T12:16:24.969Z,10.50
2019-02-20T12:18:51.693Z,10.71
2019-02-20T12:21:18.464Z,11.01
2019-02-20T12:23:45.200Z,11.32
2019-02-20T12:26:11.978Z,11.62
2019-02-20T12:28:38.707Z,11.97
2019-02-20T12:31:05.475Z,12.29
2019-02-20T12:33:32.263Z,12.53
2019-02-20T12:35:58.969Z,12.64
2019-02-20T12:38:26.129Z,12.77
2019-02-20T12:40:52.912Z,12.83
2019-02-20T12:43:19.654Z,12.86
2019-02-20T12:45:46.467Z,12.94
2019-02-20T12:48:13.234Z,12.99
2019-02-20T12:50:39.969Z,13.00
2019-02-20T12:53:06.723Z,13.06
2019-02-20T12:55:33.499Z,13.11
2019-02-20T12:58:00.256Z,13.24
2019-02-20T13:00:27.070Z,13.30
2019-02-20T13:02:53.776Z,13.41
2019-02-20T13:05:20.509Z,13.46
2019-02-20T13:07:47.334Z,13.56
2019-02-20T13:10:14.151Z,13.66
2019-02-20T13:12:40.908Z,13.70
2019-02-20T13:15:10.180Z,13.75
2019-02-20T13:17:36.955Z,13.79
2019-02-20T13:20:06.778Z,13.80
2019-02-20T13:22:33.585Z,13.78
2019-02-20T13:25:00.329Z,13.79
2019-02-20T13:27:27.061Z,13.61
2019-02-20T13:29:53.839Z,13.59
2019-02-20T13:32:20.580Z,13.54
2019-02-20T13:34:47.349Z,13.56
2019-02-20T13:37:14.150Z,13.46
2019-02-20T13:39:40.882Z,13.31
2019-02-20T13:42:07.599Z,13.36
2019-02-20T13:44:34.789Z,13.37
2019-02-20T13:47:01.524Z,13.26
2019-02-20T13:49:28.265Z,13.08
2019-02-20T13:51:55.063Z,13.12
2019-02-20T13:54:21.831Z,13.06
2019-02-20T13:56:48.650Z,12.98
2019-02-20T13:59:15.362Z,12.88
2019-02-20T14:01:42.082Z,12.79
2019-02-20T14:04:09.202Z,12.73
2019-02-20T14:06:35.920Z,12.42
2019-02-20T14:09:04.151Z,12.37
2019-02-20T14:11:30.928Z,12.11
2019-02-20T14:13:57.683Z,11.95
2019-02-20T14:16:24.466Z,11.60
2019-02-20T14:18:51.419Z,11.29
2019-02-20T14:21:18.107Z,11.00
2019-02-20T14:23:45.223Z,10.68
2019-02-20T14:26:11.977Z,10.45
2019-02-20T14:28:38.744Z,10.23
2019-02-20T14:31:07.061Z,10.10
2019-02-20T14:33:33.940Z,9.94
2019-02-20T14:36:00.743Z,9.78
2019-02-20T14:38:32.063Z,9.73
2019-02-20T14:40:58.759Z,9.61
2019-02-20T14:43:25.864Z,9.52
2019-02-20T14:45:52.587Z,9.33
2019-02-20T14:48:19.322Z,9.19
2019-02-20T14:50:46.131Z,9.04
2019-02-20T14:53:12.922Z,8.95
2019-02-20T14:55:39.672Z,8.75
2019-02-20T14:58:06.466Z,8.63
2019-02-20T15:00:33.362Z,8.45
2019-02-20T15:03:00.584Z,8.38
2019-02-20T15:05:27.327Z,8.28
2019-02-20T15:07:54.110Z,8.16
2019-02-20T15:10:20.891Z,7.98
2019-02-20T15:12:47.637Z,7.88
2019-02-20T15:15:14.372Z,7.77
2019-02-20T15:17:41.211Z,7.71
2019-02-20T15:20:10.942Z,7.62
2019-02-20T15:22:37.592Z,7.49
2019-02-20T15:25:06.870Z,7.36
2019-02-20T15:27:33.606Z,7.25
2019-02-20T15:30:00.427Z,7.10
2019-02-20T15:32:27.138Z,6.96
2019-02-20T15:34:53.867Z,6.98
2019-02-20T15:37:20.633Z,6.91
2019-02-20T15:39:47.688Z,6.72
2019-02-20T15:42:14.410Z,6.64
2019-02-20T15:44:41.214Z,6.57
2019-02-20T15:47:07.927Z,6.47
2019-02-20T15:49:34.726Z,6.36
2019-02-20T15:52:01.470Z,6.30
2019-02-20T15:54:28.523Z,6.27
2019-02-20T15:56:55.285Z,6.23
2019-02-20T15:59:22.129Z,6.16
2019-02-20T16:01:48.859Z,6.09
2019-02-20T16:04:15.670Z,6.04
2019-02-20T16:06:44.365Z,5.95
2019-02-20T16:09:11.179Z,5.87
2019-02-20T16:11:37.977Z,5.79
2019-02-20T16:14:04.804Z,5.74
2019-02-20T16:16:31.558Z,5.63
2019-02-20T16:18:58.381Z,5.50
2019-02-20T16:21:25.105Z,5.31
2019-02-20T16:23:51.858Z,5.29
2019-02-20T16:26:18.677Z,5.23
2019-02-20T16:28:45.425Z,5.17
2019-02-20T16:31:12.152Z,5.10
2019-02-20T16:33:38.997Z,5.10
2019-02-20T16:36:05.692Z,5.11
2019-02-20T16:38:32.470Z,5.05
2019-02-20T16:40:59.473Z,4.96
2019-02-20T16:43:26.299Z,4.90
2019-02-20T16:45:53.021Z,4.79
2019-02-20T16:48:19.800Z,4.74
2019-02-20T16:50:46.556Z,4.64
2019-02-20T16:53:13.301Z,4.59
2019-02-20T16:55:40.156Z,4.50
2019-02-20T16:58:06.905Z,4.42
2019-02-20T17:00:34.111Z,4.42
2019-02-20T17:03:00.876Z,4.37
2019-02-20T17:05:27.618Z,4.25
2019-02-20T17:07:54.372Z,4.22
2019-02-20T17:10:21.441Z,4.18
2019-02-20T17:12:48.165Z,4.10
2019-02-20T17:15:16.080Z,4.06
2019-02-20T17:17:43.273Z,3.94
2019-02-20T17:20:17.753Z,3.88
2019-02-20T17:22:45.002Z,3.82
2019-02-20T17:25:12.321Z,3.78
2019-02-20T17:27:39.064Z,3.78
2019-02-20T17:30:10.036Z,3.76
2019-02-20T17:32:36.773Z,3.67
2019-02-20T17:35:06.694Z,3.57
2019-02-20T17:37:33.496Z,3.51
2019-02-20T17:40:00.289Z,3.49
2019-02-20T17:42:27.024Z,3.42
2019-02-20T17:44:53.838Z,3.35
2019-02-20T17:47:20.594Z,3.22
2019-02-20T17:49:47.294Z,3.20
2019-02-20T17:52:14.095Z,3.17
2019-02-20T17:54:40.907Z,3.16
2019-02-20T17:57:07.785Z,3.09
2019-02-20T17:59:34.490Z,3.10
2019-02-20T18:02:01.203Z,3.08
2019-02-20T18:04:28.006Z,3.02
2019-02-20T18:06:54.753Z,2.99
2019-02-20T18:09:21.507Z,2.95
2019-02-20T18:11:48.515Z,2.89
2019-02-20T18:14:15.222Z,2.83
2019-02-20T18:16:41.963Z,2.77
2019-02-20T18:19:08.773Z,2.73
2019-02-20T18:21:35.530Z,2.68
2019-02-20T18:24:02.261Z,2.64
2019-02-20T18:26:29.067Z,2.64
2019-02-20T18:28:55.827Z,2.57
2019-02-20T18:31:22.545Z,2.53
2019-02-20T18:33:49.355Z,2.46
2019-02-20T18:36:16.184Z,2.43
2019-02-20T18:38:42.920Z,2.41
2019-02-20T18:41:09.703Z,2.41
2019-02-20T18:43:36.428Z,2.39
2019-02-20T18:46:03.294Z,2.31
2019-02-20T18:48:30.083Z,2.27
2019-02-20T18:50:56.837Z,2.23
2019-02-20T18:53:23.561Z,2.19
2019-02-20T18:55:50.368Z,2.18
2019-02-20T18:58:18.974Z,2.20
2019-02-20T19:00:45.680Z,2.14
2019-02-20T19:03:12.483Z,2.12
2019-02-20T19:05:39.225Z,2.10
2019-02-20T19:08:33.840Z,2.08
2019-02-20T19:11:30.281Z,2.03
2019-02-20T19:14:17.214Z,1.98
2019-02-20T19:17:08.579Z,1.84
2019-02-20T19:22:55.929Z,1.82
2019-02-20T19:25:59.464Z,1.82
2019-02-20T19:28:44.214Z,1.76
2019-02-20T19:31:39.436Z,1.68
2019-02-20T19:34:20.411Z,1.63
2019-02-20T19:37:16.370Z,1.66
2019-02-20T19:39:51.183Z,1.72
2019-02-20T19:42:47.276Z,1.71
2019-02-20T19:45:33.905Z,1.66
2019-02-20T19:48:20.424Z,1.62
2019-02-20T19:50:55.357Z,1.57
2019-02-20T19:53:39.430Z,1.52
2019-02-20T19:56:35.333Z,1.52
2019-02-20T19:59:29.495Z,1.53
2019-02-20T20:02:27.892Z,1.48
2019-02-20T20:05:08.564Z,1.41
2019-02-20T20:08:05.936Z,1.35
2019-02-20T20:10:47.343Z,1.36
2019-02-20T20:13:31.577Z,1.37
2019-02-20T20:16:18.210Z,1.37
2019-02-20T20:19:02.334Z,1.35
2019-02-20T20:21:34.563Z,1.29
2019-02-20T20:24:24.967Z,1.24
2019-02-20T20:27:19.752Z,1.24
2019-02-20T20:30:13.311Z,1.24
2019-02-20T20:33:03.574Z,1.20
2019-02-20T20:35:56.992Z,1.21
2019-02-20T20:38:52.909Z,1.19
2019-02-20T20:41:33.680Z,1.15
2019-02-20T20:44:08.937Z,1.15
2019-02-20T20:46:50.510Z,1.19
2019-02-20T20:49:51.250Z,1.23
2019-02-20T20:52:47.991Z,1.22
2019-02-20T20:55:40.801Z,1.11
2019-02-20T20:58:40.461Z,1.09
2019-02-20T21:01:41.370Z,1.08
2019-02-20T21:04:31.865Z,1.01
2019-02-20T21:07:34.279Z,1.00
2019-02-20T21:10:12.751Z,0.99
2019-02-20T21:12:56.914Z,1.00
2019-02-20T21:15:57.156Z,1.06
2019-02-20T21:18:38.006Z,1.08
2019-02-20T21:21:28.211Z,1.05
2019-02-20T21:24:15.678Z,1.09
2019-02-20T21:27:11.929Z,1.13
2019-02-20T21:29:47.417Z,1.07
2019-02-20T21:32:47.947Z,1.06
2019-02-20T21:35:39.647Z,1.12
2019-02-20T21:38:41.077Z,1.12
2019-02-20T21:41:36.059Z,1.11
2019-02-20T21:44:27.504Z,1.04
2019-02-20T21:47:05.598Z,1.03
2019-02-20T21:50:06.870Z,0.99
2019-02-20T21:52:41.681Z,1.01
2019-02-20T21:55:45.333Z,1.00
2019-02-20T21:58:20.527Z,0.97
2019-02-20T22:01:36.104Z,0.93
2019-02-20T22:04:19.479Z,0.98
2019-02-20T22:07:15.583Z,0.90
2019-02-20T22:10:11.869Z,0.90
2019-02-20T22:13:02.092Z,0.88
2019-02-20T22:15:50.935Z,0.86
2019-02-20T22:18:31.862Z,0.86
2019-02-20T22:21:37.535Z,0.83
2019-02-20T22:24:18.564Z,0.85
2019-02-20T22:27:17.267Z,0.79
2019-02-20T22:30:28.791Z,0.81
2019-02-20T22:33:06.873Z,0.80
2019-02-20T22:35:48.357Z,0.79
2019-02-20T22:38:44.363Z,0.80
2019-02-20T22:41:40.815Z,0.83
2019-02-20T22:44:40.851Z,0.84
2019-02-20T22:47:29.984Z,0.83
2019-02-20T22:50:35.111Z,0.87
2019-02-20T22:53:30.246Z,0.90
2019-02-20T22:56:35.822Z,0.91
2019-02-20T22:59:33.796Z,0.97
2019-02-20T23:02:14.859Z,0.92
2019-02-20T23:05:05.120Z,0.93
2019-02-20T23:07:40.242Z,0.93
2019-02-20T23:10:36.342Z,0.93
2019-02-20T23:13:11.346Z,1.01
2019-02-20T23:15:38.119Z,1.08
2019-02-20T23:18:04.963Z,1.12
2019-02-20T23:20:31.740Z,1.20
2019-02-20T23:22:58.488Z,1.23
2019-02-20T23:25:25.210Z,1.18
2019-02-20T23:27:52.002Z,1.16
2019-02-20T23:30:18.763Z,1.16
2019-02-20T23:32:45.499Z,1.15
2019-02-20T23:35:12.309Z,1.11
2019-02-20T23:37:39.039Z,1.08
2019-02-20T23:40:08.590Z,1.09
2019-02-20T23:42:35.347Z,1.07
2019-02-20T23:45:21.847Z,1.03
2019-02-20T23:47:48.612Z,1.00
2019-02-20T23:50:15.327Z,0.95
2019-02-20T23:52:42.034Z,0.91
2019-02-20T23:55:08.835Z,0.87
2019-02-20T23:57:35.565Z,0.73
